createdAt,value
2018-02-05T00:00:50.295Z,66.30
2018-02-05T00:03:17.940Z,66.00
2018-02-05T00:05:45.574Z,66.00
2018-02-05T00:08:13.689Z,66.90
2018-02-05T00:10:42.145Z,66.00
2018-02-05T00:13:10.681Z,67.50
2018-02-05T00:15:38.395Z,67.80
2018-02-05T00:18:06.063Z,67.80
2018-02-05T00:23:01.935Z,67.70
2018-02-05T00:25:29.574Z,67.10
2018-02-05T00:27:57.221Z,67.80
2018-02-05T00:30:25.374Z,68.70
2018-02-05T00:32:52.959Z,68.70
2018-02-05T00:35:20.661Z,67.70
2018-02-05T00:37:48.346Z,68.30
2018-02-05T00:40:15.997Z,68.50
2018-02-05T00:45:24.378Z,67.50
2018-02-05T00:47:51.994Z,66.90
2018-02-05T00:50:19.846Z,66.20
2018-02-05T00:52:47.616Z,67.50
2018-02-05T00:55:15.301Z,68.00
2018-02-05T00:57:42.920Z,68.20
2018-02-05T01:00:10.669Z,68.60
2018-02-05T01:05:18.831Z,68.70
2018-02-05T01:07:48.975Z,71.00
2018-02-05T01:10:16.597Z,69.80
2018-02-05T01:12:47.933Z,71.70
2018-02-05T01:15:15.579Z,70.80
2018-02-05T01:17:43.226Z,71.30
2018-02-05T01:20:10.961Z,71.90
2018-02-05T01:22:38.596Z,70.80
2018-02-05T01:25:06.218Z,72.10
2018-02-05T01:27:33.928Z,73.40
2018-02-05T01:30:01.547Z,75.30
2018-02-05T01:32:30.012Z,75.00
2018-02-05T01:37:38.646Z,74.90
2018-02-05T01:40:06.402Z,75.40
2018-02-05T01:42:33.981Z,75.50
2018-02-05T01:45:02.598Z,74.60
2018-02-05T01:47:31.215Z,76.20
2018-02-05T01:49:58.986Z,78.10
2018-02-05T01:52:26.568Z,77.60
2018-02-05T01:57:21.861Z,78.20
2018-02-05T01:59:49.512Z,77.00
2018-02-05T02:02:17.225Z,77.30
2018-02-05T02:04:44.856Z,78.00
2018-02-05T02:07:12.509Z,77.00
2018-02-05T02:09:40.212Z,77.40
2018-02-05T02:12:07.870Z,77.40
2018-02-05T02:14:35.514Z,79.50
2018-02-05T02:17:03.184Z,80.20
2018-02-05T02:19:30.846Z,80.50
2018-02-05T02:21:58.465Z,79.70
2018-02-05T02:24:26.155Z,79.10
2018-02-05T02:26:53.796Z,78.10
2018-02-05T02:29:21.444Z,77.90
2018-02-05T02:31:50.012Z,78.10
2018-02-05T02:34:17.654Z,78.50
2018-02-05T02:36:45.264Z,79.70
2018-02-05T02:39:12.964Z,80.10
2018-02-05T02:41:41.165Z,79.10
2018-02-05T02:44:08.808Z,79.80
2018-02-05T02:46:36.500Z,81.50
2018-02-05T02:49:04.123Z,81.60
2018-02-05T02:51:31.763Z,81.90
2018-02-05T02:53:59.473Z,81.70
2018-02-05T02:56:27.461Z,82.20
2018-02-05T02:58:55.093Z,82.20
2018-02-05T03:04:04.094Z,82.10
2018-02-05T03:06:31.815Z,82.10
2018-02-05T03:08:59.471Z,83.10
2018-02-05T03:11:28.001Z,83.90
2018-02-05T03:13:55.699Z,82.90
2018-02-05T03:16:23.356Z,82.70
2018-02-05T03:18:50.969Z,82.90
2018-02-05T03:21:18.695Z,82.60
2018-02-05T03:23:48.334Z,83.00
2018-02-05T03:26:14.972Z,85.30
2018-02-05T03:28:42.629Z,84.90
2018-02-05T03:31:10.278Z,84.20
2018-02-05T03:33:39.528Z,84.30
2018-02-05T03:36:07.251Z,84.30
2018-02-05T03:38:34.889Z,83.80
2018-02-05T03:41:02.524Z,85.40
2018-02-05T03:43:30.295Z,85.30
2018-02-05T03:45:57.910Z,85.10
2018-02-05T03:48:26.349Z,85.10
2018-02-05T03:50:54.039Z,85.40
2018-02-05T03:53:23.934Z,84.50
2018-02-05T03:55:51.576Z,85.00
2018-02-05T03:58:19.318Z,84.90
2018-02-05T04:00:46.935Z,85.00
2018-02-05T04:03:14.766Z,85.90
2018-02-05T04:08:10.081Z,85.00
2018-02-05T04:10:37.713Z,85.40
2018-02-05T04:15:33.300Z,83.70
2018-02-05T04:18:00.850Z,84.30
2018-02-05T04:20:28.649Z,85.20
2018-02-05T04:25:28.030Z,85.60
2018-02-05T04:30:36.116Z,86.20
2018-02-05T04:35:32.321Z,86.50
2018-02-05T04:37:59.939Z,85.50
2018-02-05T04:40:28.601Z,85.10
2018-02-05T04:42:58.855Z,85.20
2018-02-05T04:45:26.492Z,85.50
2018-02-05T04:47:54.197Z,85.30
2018-02-05T04:50:21.837Z,85.70
2018-02-05T04:52:49.508Z,86.50
2018-02-05T04:55:20.005Z,85.70
2018-02-05T04:57:47.626Z,85.30
2018-02-05T05:00:15.901Z,86.30
2018-02-05T05:02:44.016Z,87.00
2018-02-05T05:05:11.673Z,86.70
2018-02-05T05:07:39.310Z,86.70
2018-02-05T05:12:37.003Z,86.90
2018-02-05T05:15:04.643Z,86.20
2018-02-05T05:17:32.359Z,85.90
2018-02-05T05:20:00.981Z,85.90
2018-02-05T05:25:09.509Z,85.80
2018-02-05T05:27:37.157Z,87.00
2018-02-05T05:30:04.787Z,88.00
2018-02-05T05:32:32.498Z,87.30
2018-02-05T05:35:00.128Z,87.30
2018-02-05T05:40:08.251Z,88.20
2018-02-05T05:42:35.922Z,88.00
2018-02-05T05:45:03.584Z,87.00
2018-02-05T05:47:31.278Z,86.70
2018-02-05T05:49:58.979Z,86.20
2018-02-05T05:52:26.558Z,87.70
2018-02-05T05:54:54.247Z,88.30
2018-02-05T05:57:21.893Z,88.30
2018-02-05T05:59:50.827Z,88.30
2018-02-05T06:04:48.914Z,89.90
2018-02-05T06:07:16.516Z,88.80
2018-02-05T06:09:44.316Z,88.30
2018-02-05T06:12:12.055Z,89.30
2018-02-05T06:14:39.734Z,89.70
2018-02-05T06:19:35.436Z,97.30
2018-02-05T06:22:03.102Z,97.90
2018-02-05T06:24:30.816Z,93.90
2018-02-05T06:26:59.675Z,90.00
2018-02-05T06:29:27.266Z,89.30
2018-02-05T06:31:55.000Z,87.20
2018-02-05T06:34:22.752Z,86.80
2018-02-05T06:36:50.341Z,87.80
2018-02-05T06:39:21.162Z,88.60
2018-02-05T06:41:48.781Z,88.50
2018-02-05T06:44:16.878Z,87.70
2018-02-05T06:46:45.501Z,87.10
2018-02-05T06:49:13.356Z,87.10
2018-02-05T06:54:43.173Z,88.40
2018-02-05T06:57:11.767Z,87.50
2018-02-05T06:59:39.429Z,87.10
2018-02-05T07:02:07.658Z,87.30
2018-02-05T07:04:36.484Z,87.10
2018-02-05T07:07:04.163Z,86.60
2018-02-05T07:09:31.854Z,87.00
2018-02-05T07:12:00.313Z,87.70
2018-02-05T07:14:28.128Z,87.10
2018-02-05T07:16:55.767Z,87.40
2018-02-05T07:19:23.453Z,87.50
2018-02-05T07:21:51.139Z,88.10
2018-02-05T07:24:18.768Z,87.50
2018-02-05T07:29:14.109Z,86.40
2018-02-05T07:31:41.761Z,86.80
2018-02-05T07:36:37.076Z,86.70
2018-02-05T07:39:04.802Z,86.70
2018-02-05T07:44:02.224Z,87.50
2018-02-05T07:46:30.741Z,87.60
2018-02-05T07:48:59.199Z,87.70
2018-02-05T07:51:26.849Z,87.80
2018-02-05T07:53:55.331Z,88.70
2018-02-05T07:56:24.046Z,88.60
2018-02-05T07:58:51.684Z,88.00
2018-02-05T08:01:19.308Z,86.30
2018-02-05T08:03:50.026Z,85.50
2018-02-05T08:06:18.630Z,86.10
2018-02-05T08:08:46.272Z,85.00
2018-02-05T08:11:14.824Z,85.30
2018-02-05T08:13:42.469Z,85.80
2018-02-05T08:16:13.208Z,88.30
2018-02-05T08:21:20.946Z,85.10
2018-02-05T08:23:48.656Z,84.00
2018-02-05T08:26:16.303Z,83.50
2018-02-05T08:28:43.945Z,82.90
2018-02-05T08:31:11.645Z,81.50
2018-02-05T08:33:39.282Z,80.70
2018-02-05T08:36:06.894Z,83.10
2018-02-05T08:38:36.176Z,83.20
2018-02-05T08:41:03.816Z,81.40
2018-02-05T08:43:31.540Z,81.90
2018-02-05T08:46:00.169Z,82.40
2018-02-05T08:48:28.691Z,80.30
2018-02-05T08:50:57.196Z,82.10
2018-02-05T08:53:25.864Z,82.40
2018-02-05T08:55:53.513Z,83.50
2018-02-05T08:58:21.196Z,83.30
2018-02-05T09:00:49.706Z,84.00
2018-02-05T09:03:17.325Z,82.80
2018-02-05T09:05:44.950Z,85.00
2018-02-05T09:08:13.546Z,85.80
2018-02-05T09:10:41.174Z,84.80
2018-02-05T09:13:08.802Z,83.70
2018-02-05T09:15:36.517Z,82.90
2018-02-05T09:18:04.167Z,83.20
2018-02-05T09:20:31.803Z,82.60
2018-02-05T09:22:59.504Z,79.60
2018-02-05T09:25:27.960Z,78.20
2018-02-05T09:27:55.606Z,74.30
2018-02-05T09:30:23.321Z,72.20
2018-02-05T09:32:51.708Z,71.00
2018-02-05T09:35:20.283Z,72.00
2018-02-05T09:37:48.392Z,74.20
2018-02-05T09:40:16.099Z,68.20
2018-02-05T09:45:24.272Z,62.70
2018-02-05T09:47:52.016Z,60.30
2018-02-05T09:50:19.654Z,62.00
2018-02-05T09:52:47.374Z,58.90
2018-02-05T09:55:15.828Z,64.40
2018-02-05T10:00:11.953Z,66.40
2018-02-05T10:02:39.576Z,61.20
2018-02-05T10:05:07.378Z,61.40
2018-02-05T10:07:35.086Z,60.40
2018-02-05T10:10:02.732Z,62.10
2018-02-05T10:12:30.351Z,61.60
2018-02-05T10:14:58.064Z,58.60
2018-02-05T10:17:25.708Z,55.20
2018-02-05T10:19:55.297Z,52.30
2018-02-05T10:22:23.770Z,53.10
2018-02-05T10:24:51.493Z,52.40
2018-02-05T10:29:46.781Z,51.60
2018-02-05T10:32:14.406Z,51.00
2018-02-05T10:34:42.108Z,50.40
2018-02-05T10:37:10.594Z,51.40
2018-02-05T10:39:38.233Z,49.40
2018-02-05T10:42:05.875Z,51.20
2018-02-05T10:44:33.577Z,46.90
2018-02-05T10:47:01.196Z,52.40
2018-02-05T10:51:57.538Z,51.80
2018-02-05T10:54:26.107Z,53.40
2018-02-05T10:56:53.735Z,51.80
2018-02-05T10:59:22.706Z,52.00
2018-02-05T11:01:50.734Z,49.50
2018-02-05T11:04:18.315Z,53.10
2018-02-05T11:11:55.663Z,51.60
2018-02-05T11:14:23.319Z,50.00
2018-02-05T11:16:50.973Z,46.70
2018-02-05T11:19:18.696Z,46.80
2018-02-05T11:21:46.322Z,48.70
2018-02-05T11:24:13.966Z,45.10
2018-02-05T11:26:41.661Z,46.50
2018-02-05T11:29:10.287Z,43.10
2018-02-05T11:31:38.848Z,44.00
2018-02-05T11:34:06.531Z,43.80
2018-02-05T11:36:35.911Z,42.10
2018-02-05T11:39:03.529Z,41.10
2018-02-05T11:41:31.225Z,44.10
2018-02-05T11:46:29.273Z,42.60
2018-02-05T11:48:54.188Z,41.50
2018-02-05T11:51:22.698Z,41.40
2018-02-05T11:53:50.337Z,45.40
2018-02-05T11:56:18.208Z,45.90
2018-02-05T11:58:45.813Z,44.60
2018-02-05T12:01:14.890Z,43.20
2018-02-05T12:08:41.972Z,45.70
2018-02-05T12:11:10.411Z,46.40
2018-02-05T12:13:38.917Z,46.20
2018-02-05T12:16:06.558Z,45.70
2018-02-05T12:18:34.255Z,45.20
2018-02-05T12:21:01.905Z,45.70
2018-02-05T12:25:58.088Z,46.00
2018-02-05T12:28:26.550Z,45.60
2018-02-05T12:30:54.184Z,44.70
2018-02-05T12:33:22.842Z,43.10
2018-02-05T12:38:31.615Z,44.50
2018-02-05T12:40:59.231Z,44.00
2018-02-05T12:43:27.934Z,43.20
2018-02-05T12:48:23.302Z,46.70
2018-02-05T12:50:50.936Z,45.30
2018-02-05T12:53:19.576Z,45.00
2018-02-05T12:55:47.608Z,45.70
2018-02-05T12:58:15.242Z,45.50
2018-02-05T13:00:48.438Z,46.10
2018-02-05T13:05:58.815Z,45.50
2018-02-05T13:08:26.505Z,42.50
2018-02-05T13:10:54.252Z,43.10
2018-02-05T13:13:21.966Z,43.80
2018-02-05T13:15:50.348Z,45.70
2018-02-05T13:18:18.921Z,44.40
2018-02-05T13:20:46.612Z,43.70
2018-02-05T13:23:14.301Z,43.00
2018-02-05T13:25:42.247Z,42.10
2018-02-05T13:28:09.928Z,42.50
2018-02-05T13:30:37.573Z,42.50
2018-02-05T13:33:06.186Z,42.40
2018-02-05T13:35:33.955Z,42.70
2018-02-05T13:38:02.364Z,43.70
2018-02-05T13:42:58.705Z,45.00
2018-02-05T13:45:26.321Z,43.40
2018-02-05T13:47:53.988Z,42.60
2018-02-05T13:50:22.400Z,42.30
2018-02-05T13:52:50.056Z,43.40
2018-02-05T13:55:17.642Z,42.90
2018-02-05T13:57:46.081Z,43.00
2018-02-05T14:00:13.720Z,44.10
2018-02-05T14:02:41.331Z,44.70
2018-02-05T14:05:10.033Z,44.40
2018-02-05T14:07:37.629Z,42.80
2018-02-05T14:10:05.650Z,43.00
2018-02-05T14:12:33.379Z,45.00
2018-02-05T14:15:01.043Z,43.90
2018-02-05T14:17:28.663Z,43.90
2018-02-05T14:19:56.381Z,43.50
2018-02-05T14:27:33.402Z,47.00
2018-02-05T14:32:28.733Z,47.30
2018-02-05T14:34:57.365Z,47.80
2018-02-05T14:37:26.053Z,48.30
2018-02-05T14:39:54.594Z,48.20
2018-02-05T14:42:23.064Z,48.30
2018-02-05T14:44:50.686Z,48.30
2018-02-05T14:47:19.352Z,49.00
2018-02-05T14:49:47.906Z,49.60
2018-02-05T14:52:15.538Z,50.10
2018-02-05T14:54:43.562Z,50.80
2018-02-05T14:57:11.956Z,51.50
2018-02-05T14:59:39.610Z,51.50
2018-02-05T15:02:07.348Z,51.50
2018-02-05T15:04:35.817Z,52.10
2018-02-05T15:07:03.440Z,51.50
2018-02-05T15:11:58.771Z,51.20
2018-02-05T15:14:26.425Z,50.40
2018-02-05T15:16:54.615Z,49.80
2018-02-05T15:19:23.020Z,49.90
2018-02-05T15:21:50.650Z,50.10
2018-02-05T15:24:18.376Z,49.50
2018-02-05T15:26:46.051Z,49.90
2018-02-05T15:31:41.394Z,49.90
2018-02-05T15:34:09.025Z,50.10
2018-02-05T15:41:43.483Z,49.20
2018-02-05T15:49:11.897Z,50.40
2018-02-05T15:51:40.351Z,50.50
2018-02-05T15:54:07.989Z,49.80
2018-02-05T15:56:35.703Z,52.70
2018-02-05T15:59:04.189Z,53.30
2018-02-05T16:01:31.828Z,53.00
2018-02-05T16:06:27.184Z,52.50
2018-02-05T16:08:54.815Z,53.40
2018-02-05T16:13:50.183Z,56.00
2018-02-05T16:16:17.903Z,55.80
2018-02-05T16:18:45.580Z,57.50
2018-02-05T16:21:13.243Z,57.20
2018-02-05T16:23:40.868Z,58.30
2018-02-05T16:26:08.544Z,58.70
2018-02-05T16:31:03.826Z,58.10
2018-02-05T16:33:32.277Z,58.30
2018-02-05T16:38:41.311Z,59.00
2018-02-05T16:41:08.951Z,61.80
2018-02-05T16:43:36.612Z,60.70
2018-02-05T16:46:04.311Z,61.90
2018-02-05T16:48:32.777Z,60.70
2018-02-05T16:51:01.338Z,60.00
2018-02-05T16:53:30.035Z,60.20
2018-02-05T16:55:57.648Z,60.00
2018-02-05T16:58:26.122Z,61.20
2018-02-05T17:00:53.845Z,60.60
2018-02-05T17:03:21.448Z,61.40
2018-02-05T17:05:49.081Z,61.00
2018-02-05T17:08:16.837Z,60.40
2018-02-05T17:11:08.191Z,61.70
2018-02-05T17:13:16.781Z,61.60
2018-02-05T17:15:44.463Z,61.90
2018-02-05T17:18:12.029Z,61.30
2018-02-05T17:20:39.711Z,60.80
2018-02-05T17:23:08.130Z,61.40
2018-02-05T17:25:35.809Z,61.20
2018-02-05T17:28:03.513Z,61.60
2018-02-05T17:30:31.146Z,61.70
2018-02-05T17:32:58.804Z,61.10
2018-02-05T17:35:27.330Z,62.40
2018-02-05T17:37:58.500Z,62.50
2018-02-05T17:40:26.163Z,62.60
2018-02-05T17:42:53.825Z,65.10
2018-02-05T17:45:21.448Z,64.60
2018-02-05T17:47:49.064Z,64.30
2018-02-05T17:50:16.804Z,64.50
2018-02-05T17:52:44.442Z,63.80
2018-02-05T17:57:44.012Z,64.30
2018-02-05T18:00:11.645Z,64.80
2018-02-05T18:05:18.447Z,63.80
2018-02-05T18:07:46.631Z,64.10
2018-02-05T18:10:14.136Z,62.80
2018-02-05T18:12:41.817Z,61.70
2018-02-05T18:15:09.479Z,62.30
2018-02-05T18:17:37.145Z,61.10
2018-02-05T18:20:04.843Z,60.70
2018-02-05T18:22:32.507Z,61.50
2018-02-05T18:27:28.980Z,62.70
2018-02-05T18:29:57.585Z,62.90
2018-02-05T18:32:25.270Z,63.20
2018-02-05T18:34:53.851Z,63.50
2018-02-05T18:37:21.501Z,63.40
2018-02-05T18:39:49.171Z,64.50
2018-02-05T18:42:16.894Z,65.00
2018-02-05T18:44:44.523Z,65.00
2018-02-05T18:47:13.067Z,65.70
2018-02-05T18:49:40.794Z,67.90
2018-02-05T18:52:08.442Z,69.20
2018-02-05T18:54:37.100Z,75.30
2018-02-05T18:57:04.788Z,76.60
2018-02-05T18:59:32.501Z,80.60
2018-02-05T19:02:11.899Z,79.60
2018-02-05T19:04:39.776Z,77.00
2018-02-05T19:07:07.995Z,81.10
2018-02-05T19:09:35.847Z,77.10
2018-02-05T19:12:03.423Z,77.30
2018-02-05T19:14:31.079Z,75.90
2018-02-05T19:16:58.811Z,75.90
2018-02-05T19:19:26.453Z,75.00
2018-02-05T19:21:54.078Z,74.80
2018-02-05T19:27:00.817Z,74.50
2018-02-05T19:29:28.515Z,74.30
2018-02-05T19:31:56.142Z,74.10
2018-02-05T19:34:24.067Z,73.10
2018-02-05T19:36:51.764Z,73.60
2018-02-05T19:39:20.223Z,73.90
2018-02-05T19:41:47.960Z,73.60
2018-02-05T19:44:16.249Z,74.30
2018-02-05T19:52:01.968Z,74.90
2018-02-05T19:57:08.888Z,79.00
2018-02-05T19:59:36.633Z,77.60
2018-02-05T20:02:04.273Z,78.00
2018-02-05T20:04:31.947Z,76.30
2018-02-05T20:06:59.664Z,77.00
2018-02-05T20:14:45.477Z,76.90
2018-02-05T20:17:13.181Z,77.30
2018-02-05T20:19:51.614Z,77.90
2018-02-05T20:24:55.888Z,76.70
2018-02-05T20:27:23.370Z,78.30
2018-02-05T20:29:52.037Z,79.40
2018-02-05T20:37:56.931Z,77.40
2018-02-05T20:40:28.932Z,79.10
2018-02-05T20:45:41.482Z,79.50
2018-02-05T20:48:09.025Z,80.00
2018-02-05T20:50:36.690Z,79.30
2018-02-05T20:53:04.371Z,79.50
2018-02-05T20:57:59.853Z,79.60
2018-02-05T21:03:27.097Z,79.50
2018-02-05T21:05:58.029Z,79.30
2018-02-05T21:08:25.892Z,79.80
2018-02-05T21:10:53.583Z,79.60
2018-02-05T21:13:21.954Z,80.40
2018-02-05T21:15:49.603Z,80.40
2018-02-05T21:18:17.250Z,79.70
2018-02-05T21:20:45.122Z,79.60
2018-02-05T21:23:14.015Z,78.70
2018-02-05T21:25:44.803Z,79.90
2018-02-05T21:28:12.446Z,82.30
2018-02-05T21:30:40.180Z,82.80
2018-02-05T21:33:07.885Z,82.20
2018-02-05T21:35:35.510Z,83.20
2018-02-05T21:38:03.165Z,83.70
2018-02-05T21:40:30.842Z,82.50
2018-02-05T21:42:58.501Z,81.20
2018-02-05T21:45:26.155Z,79.90
2018-02-05T21:47:53.842Z,80.00
2018-02-05T21:50:21.465Z,81.30
2018-02-05T21:52:49.136Z,80.10
2018-02-05T21:55:17.169Z,80.60
2018-02-05T22:00:12.423Z,81.30
2018-02-05T22:02:40.186Z,82.00
2018-02-05T22:07:47.150Z,82.90
2018-02-05T22:10:14.768Z,84.20
2018-02-05T22:12:42.395Z,83.10
2018-02-05T22:15:10.114Z,83.00
2018-02-05T22:17:37.757Z,83.80
2018-02-05T22:20:05.401Z,83.10
2018-02-05T22:22:33.098Z,82.60
2018-02-05T22:27:39.946Z,83.00
2018-02-05T22:30:07.596Z,82.10
2018-02-05T22:32:35.234Z,81.80
2018-02-05T22:35:03.812Z,81.70
2018-02-05T22:37:35.758Z,83.00
2018-02-05T22:42:31.493Z,85.00
2018-02-05T22:44:59.141Z,85.40
2018-02-05T22:47:26.844Z,86.20
2018-02-05T22:49:54.469Z,85.40
2018-02-05T22:52:22.121Z,85.30
2018-02-05T22:54:49.818Z,84.80
2018-02-05T22:57:17.471Z,87.80
2018-02-05T22:59:47.088Z,85.40
2018-02-05T23:02:14.785Z,84.60
2018-02-05T23:04:42.433Z,84.00
2018-02-05T23:07:10.073Z,84.40
2018-02-05T23:09:37.773Z,84.00
2018-02-05T23:12:05.413Z,85.10
2018-02-05T23:14:33.037Z,86.40
2018-02-05T23:17:01.085Z,86.40
2018-02-05T23:19:28.714Z,85.00
2018-02-05T23:21:56.357Z,84.90
2018-02-05T23:24:24.059Z,85.10
2018-02-05T23:26:51.717Z,85.70
2018-02-05T23:29:19.685Z,84.80
2018-02-05T23:31:47.109Z,85.40
2018-02-05T23:34:14.753Z,86.70
2018-02-05T23:36:43.324Z,86.70
2018-02-05T23:39:11.075Z,86.10
2018-02-05T23:41:38.687Z,86.10
2018-02-05T23:44:06.307Z,87.10
2018-02-05T23:46:33.995Z,87.00
2018-02-05T23:49:01.715Z,86.40
2018-02-05T23:51:29.354Z,86.10
2018-02-05T23:56:38.239Z,84.20
2018-02-05T23:59:06.950Z,84.40
